createdAt,value
2023-01-13T00:01:10.171Z,6.98
2023-01-13T00:03:39.871Z,7.04
2023-01-13T00:06:09.049Z,7.05
2023-01-13T00:08:37.210Z,7.08
2023-01-13T00:11:05.286Z,7.05
2023-01-13T00:13:35.416Z,6.99
2023-01-13T00:16:06.616Z,7.03
2023-01-13T00:18:36.984Z,7.02
2023-01-13T00:21:08.836Z,7.01
2023-01-13T00:23:37.225Z,7.02
2023-01-13T00:26:08.586Z,6.97
2023-01-13T00:28:37.336Z,7.01
2023-01-13T00:31:09.596Z,7.01
2023-01-13T00:33:38.024Z,6.95
2023-01-13T00:36:09.878Z,6.92
2023-01-13T00:38:39.068Z,6.96
2023-01-13T00:41:09.339Z,6.94
2023-01-13T00:43:54.987Z,6.84
2023-01-13T00:46:23.521Z,6.89
2023-01-13T00:48:51.618Z,6.95
2023-01-13T00:51:22.725Z,6.95
2023-01-13T00:53:52.399Z,6.86
2023-01-13T00:56:38.410Z,6.86
2023-01-13T00:59:07.680Z,6.90
2023-01-13T01:01:36.061Z,6.85
2023-01-13T01:04:04.134Z,6.89
2023-01-13T01:06:33.630Z,6.90
2023-01-13T01:09:01.942Z,6.88
2023-01-13T01:11:31.718Z,6.88
2023-01-13T01:14:02.128Z,6.86
2023-01-13T01:16:31.947Z,6.86
2023-01-13T01:19:01.456Z,6.79
2023-01-13T01:21:30.337Z,6.85
2023-01-13T01:24:01.936Z,6.83
2023-01-13T01:26:31.594Z,6.84
2023-01-13T01:29:02.209Z,6.87
2023-01-13T01:31:32.912Z,6.93
2023-01-13T01:34:01.761Z,6.91
2023-01-13T01:36:30.565Z,6.86
2023-01-13T01:39:00.941Z,6.83
2023-01-13T01:41:31.672Z,6.85
2023-01-13T01:44:00.447Z,6.84
2023-01-13T01:46:30.767Z,6.86
2023-01-13T01:49:04.633Z,6.78
2023-01-13T01:51:36.507Z,6.75
2023-01-13T01:54:11.482Z,6.78
2023-01-13T01:56:42.895Z,6.82
2023-01-13T01:59:11.617Z,6.80
2023-01-13T02:01:41.776Z,6.77
2023-01-13T02:04:15.421Z,6.76
2023-01-13T02:06:45.541Z,6.76
2023-01-13T02:09:16.083Z,6.75
2023-01-13T02:12:01.591Z,6.71
2023-01-13T02:14:31.782Z,6.74
2023-01-13T02:17:15.819Z,6.76
2023-01-13T02:20:25.455Z,6.74
2023-01-13T02:23:52.280Z,6.76
2023-01-13T02:26:50.083Z,6.74
2023-01-13T02:29:56.833Z,6.67
2023-01-13T02:32:31.191Z,6.62
2023-01-13T02:35:07.945Z,6.66
2023-01-13T02:37:40.467Z,6.62
2023-01-13T02:40:13.561Z,6.60
2023-01-13T02:43:06.035Z,6.57
2023-01-13T02:45:40.881Z,6.54
2023-01-13T02:48:12.174Z,6.58
2023-01-13T02:50:45.544Z,6.58
2023-01-13T02:53:19.501Z,6.50
2023-01-13T02:56:07.281Z,6.54
2023-01-13T02:58:37.550Z,6.56
2023-01-13T03:01:10.704Z,6.53
2023-01-13T03:03:38.872Z,6.52
2023-01-13T03:06:26.015Z,6.57
2023-01-13T03:09:01.119Z,6.55
2023-01-13T03:11:36.243Z,6.54
2023-01-13T03:14:19.798Z,6.52
2023-01-13T03:17:00.714Z,6.45
2023-01-13T03:19:38.445Z,6.43
2023-01-13T03:22:15.706Z,6.39
2023-01-13T03:24:48.144Z,6.42
2023-01-13T03:27:21.802Z,6.41
2023-01-13T03:29:56.534Z,6.41
2023-01-13T03:32:29.400Z,6.39
2023-01-13T03:35:03.733Z,6.43
2023-01-13T03:37:36.321Z,6.38
2023-01-13T03:40:10.011Z,6.41
2023-01-13T03:42:42.068Z,6.39
2023-01-13T03:45:15.073Z,6.42
2023-01-13T03:47:52.391Z,6.40
2023-01-13T03:50:23.838Z,6.41
2023-01-13T03:52:57.396Z,6.41
2023-01-13T03:55:30.691Z,6.38
2023-01-13T03:58:03.244Z,6.35
2023-01-13T04:00:38.779Z,6.34
2023-01-13T04:03:11.315Z,6.35
2023-01-13T04:05:43.413Z,6.39
2023-01-13T04:08:18.042Z,6.38
2023-01-13T04:10:54.612Z,6.36
2023-01-13T04:13:25.937Z,6.30
2023-01-13T04:15:54.145Z,6.31
2023-01-13T04:18:26.316Z,6.36
2023-01-13T04:20:56.251Z,6.34
2023-01-13T04:23:32.829Z,6.34
2023-01-13T04:26:01.569Z,6.28
2023-01-13T04:28:29.761Z,6.35
2023-01-13T04:30:57.937Z,6.32
2023-01-13T04:33:28.540Z,6.30
2023-01-13T04:35:56.657Z,6.33
2023-01-13T04:38:24.876Z,6.36
2023-01-13T04:40:53.063Z,6.34
2023-01-13T04:43:21.128Z,6.32
2023-01-13T04:45:49.263Z,6.36
2023-01-13T04:51:04.448Z,6.35
2023-01-13T04:53:32.546Z,6.37
2023-01-13T04:56:00.874Z,6.36
2023-01-13T04:58:28.999Z,6.32
2023-01-13T05:00:57.025Z,6.33
2023-01-13T05:03:26.802Z,6.34
2023-01-13T05:05:54.895Z,6.29
2023-01-13T05:08:24.411Z,6.33
2023-01-13T05:10:52.499Z,6.29
2023-01-13T05:13:38.368Z,6.32
2023-01-13T05:16:24.542Z,6.27
2023-01-13T05:18:52.725Z,6.23
2023-01-13T05:21:38.203Z,6.24
2023-01-13T05:24:27.609Z,6.34
2023-01-13T05:26:55.701Z,6.31
2023-01-13T05:29:23.811Z,6.36
2023-01-13T05:31:51.839Z,6.33
2023-01-13T05:34:20.082Z,6.38
2023-01-13T05:36:48.220Z,6.35
2023-01-13T05:39:17.811Z,6.32
2023-01-13T05:42:03.592Z,6.34
2023-01-13T05:44:31.743Z,6.37
2023-01-13T05:47:00.056Z,6.29
2023-01-13T05:49:28.259Z,6.30
2023-01-13T05:51:56.247Z,6.28
2023-01-13T05:54:25.785Z,6.24
2023-01-13T05:56:53.961Z,6.31
2023-01-13T05:59:22.113Z,6.31
2023-01-13T06:01:50.719Z,6.33
2023-01-13T06:04:18.825Z,6.25
2023-01-13T06:06:48.572Z,6.35
2023-01-13T06:09:16.970Z,6.31
2023-01-13T06:11:46.590Z,6.35
2023-01-13T06:14:15.004Z,6.36
2023-01-13T06:16:43.263Z,6.33
2023-01-13T06:19:13.213Z,6.29
2023-01-13T06:21:41.788Z,6.28
2023-01-13T06:24:10.625Z,6.25
2023-01-13T06:26:41.570Z,6.29
2023-01-13T06:29:14.135Z,6.31
2023-01-13T06:31:42.517Z,6.30
2023-01-13T06:34:14.638Z,6.36
2023-01-13T06:36:47.030Z,6.34
2023-01-13T06:39:19.315Z,6.44
2023-01-13T06:42:11.202Z,6.46
2023-01-13T06:44:40.960Z,6.47
2023-01-13T06:47:09.830Z,6.48
2023-01-13T06:49:37.910Z,6.52
2023-01-13T06:52:06.584Z,6.53
2023-01-13T06:54:35.591Z,6.55
2023-01-13T06:57:04.154Z,6.57
2023-01-13T06:59:34.475Z,6.57
2023-01-13T07:02:04.193Z,6.53
2023-01-13T07:04:32.295Z,6.54
2023-01-13T07:07:00.571Z,6.46
2023-01-13T07:09:28.670Z,6.52
2023-01-13T07:11:56.659Z,6.53
2023-01-13T07:14:42.196Z,6.55
2023-01-13T07:17:11.837Z,6.52
2023-01-13T07:19:39.875Z,6.59
2023-01-13T07:22:08.126Z,6.69
2023-01-13T07:24:36.186Z,6.75
2023-01-13T07:27:04.395Z,6.74
2023-01-13T07:29:32.421Z,6.66
2023-01-13T07:32:01.468Z,6.62
2023-01-13T07:34:30.988Z,6.68
2023-01-13T07:36:59.097Z,6.70
2023-01-13T07:39:27.215Z,6.72
2023-01-13T07:42:13.028Z,6.75
2023-01-13T07:44:41.082Z,6.85
2023-01-13T07:47:11.266Z,6.96
2023-01-13T07:49:40.776Z,7.00
2023-01-13T07:52:09.096Z,7.00
2023-01-13T07:54:40.897Z,6.96
2023-01-13T07:57:09.241Z,6.92
2023-01-13T07:59:37.616Z,6.91
2023-01-13T08:02:05.877Z,6.89
2023-01-13T08:04:34.942Z,6.81
2023-01-13T08:07:05.641Z,7.03
2023-01-13T08:09:34.149Z,6.98
2023-01-13T08:12:15.929Z,7.00
2023-01-13T08:14:46.540Z,7.14
2023-01-13T08:17:14.691Z,7.19
2023-01-13T08:19:42.831Z,7.26
2023-01-13T08:22:12.275Z,7.26
2023-01-13T08:24:40.384Z,7.20
2023-01-13T08:27:08.632Z,7.10
2023-01-13T08:29:36.723Z,7.24
2023-01-13T08:32:05.172Z,7.31
2023-01-13T08:34:33.391Z,7.38
2023-01-13T08:37:01.592Z,7.37
2023-01-13T08:39:31.150Z,7.40
2023-01-13T08:41:59.565Z,7.27
2023-01-13T08:44:29.002Z,7.40
2023-01-13T08:46:57.414Z,7.50
2023-01-13T08:49:26.281Z,7.48
2023-01-13T08:51:54.985Z,7.39
2023-01-13T08:54:23.116Z,7.34
2023-01-13T08:56:52.763Z,7.45
2023-01-13T08:59:21.428Z,7.55
2023-01-13T09:01:49.596Z,7.58
2023-01-13T09:04:19.890Z,7.48
2023-01-13T09:06:49.359Z,7.54
2023-01-13T09:09:17.910Z,7.68
2023-01-13T09:12:05.850Z,7.77
2023-01-13T09:14:38.442Z,7.74
2023-01-13T09:17:07.610Z,8.03
2023-01-13T09:19:36.231Z,8.05
2023-01-13T09:22:04.595Z,8.00
2023-01-13T09:24:33.004Z,8.15
2023-01-13T09:27:01.322Z,8.17
2023-01-13T09:29:29.748Z,8.13
2023-01-13T09:31:59.601Z,7.98
2023-01-13T09:34:45.211Z,8.07
2023-01-13T09:37:13.426Z,7.98
2023-01-13T09:39:41.585Z,8.20
2023-01-13T09:42:37.854Z,8.33
2023-01-13T09:45:10.115Z,8.23
2023-01-13T09:47:47.421Z,8.41
2023-01-13T09:50:30.764Z,8.41
2023-01-13T09:53:00.780Z,8.46
2023-01-13T09:55:36.758Z,8.41
2023-01-13T09:58:12.938Z,8.34
2023-01-13T10:00:47.242Z,8.49
2023-01-13T10:03:26.617Z,8.49
2023-01-13T10:06:02.170Z,8.61
2023-01-13T10:08:34.747Z,8.58
2023-01-13T10:11:29.977Z,8.64
2023-01-13T10:13:59.985Z,8.70
2023-01-13T10:16:36.801Z,8.88
2023-01-13T10:19:13.134Z,8.89
2023-01-13T10:22:09.882Z,8.91
2023-01-13T10:24:59.821Z,9.15
2023-01-13T10:27:34.645Z,9.18
2023-01-13T10:30:13.057Z,9.21
2023-01-13T10:32:44.901Z,9.15
2023-01-13T10:35:14.540Z,9.23
2023-01-13T10:37:57.735Z,9.22
2023-01-13T10:40:26.772Z,9.23
2023-01-13T10:43:07.106Z,9.32
2023-01-13T10:45:35.331Z,9.28
2023-01-13T10:48:14.115Z,9.35
2023-01-13T10:50:44.292Z,9.36
2023-01-13T10:53:25.368Z,9.47
2023-01-13T10:56:01.789Z,9.36
2023-01-13T10:58:30.447Z,9.48
2023-01-13T11:01:03.408Z,9.55
2023-01-13T11:03:41.692Z,9.53
2023-01-13T11:06:21.158Z,9.54
2023-01-13T11:08:51.409Z,9.40
2023-01-13T11:11:44.770Z,9.44
2023-01-13T11:14:43.198Z,9.59
2023-01-13T11:17:30.039Z,9.62
2023-01-13T11:20:06.796Z,9.41
2023-01-13T11:22:40.989Z,9.23
2023-01-13T11:25:15.584Z,9.35
2023-01-13T11:27:47.706Z,9.52
2023-01-13T11:30:26.265Z,9.44
2023-01-13T11:33:16.310Z,9.31
2023-01-13T11:35:49.936Z,9.38
2023-01-13T11:38:29.438Z,9.31
2023-01-13T11:41:01.889Z,9.46
2023-01-13T11:43:35.738Z,9.40
2023-01-13T11:46:04.217Z,9.48
2023-01-13T11:48:37.198Z,9.58
2023-01-13T11:51:11.670Z,9.45
2023-01-13T11:53:55.192Z,9.51
2023-01-13T11:56:44.221Z,9.58
2023-01-13T11:59:44.671Z,9.60
2023-01-13T12:02:28.925Z,9.64
2023-01-13T12:05:10.201Z,9.78
2023-01-13T12:07:45.235Z,9.90
2023-01-13T12:10:26.115Z,9.84
2023-01-13T12:13:04.925Z,9.91
2023-01-13T12:15:50.737Z,9.66
2023-01-13T12:18:34.242Z,9.79
2023-01-13T12:21:16.059Z,9.90
2023-01-13T12:23:52.053Z,9.95
2023-01-13T12:26:21.625Z,9.80
2023-01-13T12:28:54.695Z,9.74
2023-01-13T12:31:25.018Z,9.28
2023-01-13T12:34:09.019Z,8.79
2023-01-13T12:36:53.944Z,9.21
2023-01-13T12:39:31.066Z,9.30
2023-01-13T12:42:25.675Z,9.19
2023-01-13T12:45:22.560Z,8.81
2023-01-13T12:47:50.989Z,8.98
2023-01-13T12:50:42.014Z,9.34
2023-01-13T12:53:34.940Z,9.42
2023-01-13T12:56:36.204Z,9.30
2023-01-13T12:59:37.086Z,9.24
2023-01-13T13:02:27.162Z,9.20
2023-01-13T13:04:57.321Z,9.44
2023-01-13T13:07:35.197Z,9.38
2023-01-13T13:10:13.433Z,9.21
2023-01-13T13:13:16.624Z,9.20
2023-01-13T13:15:47.411Z,9.21
2023-01-13T13:18:27.250Z,9.13
2023-01-13T13:21:04.295Z,9.08
2023-01-13T13:24:05.329Z,9.21
2023-01-13T13:26:46.891Z,9.06
2023-01-13T13:29:36.263Z,8.92
2023-01-13T13:32:26.255Z,8.97
2023-01-13T13:35:08.879Z,8.84
2023-01-13T13:38:10.215Z,8.82
2023-01-13T13:40:59.762Z,8.80
2023-01-13T13:43:46.683Z,8.81
2023-01-13T13:46:43.285Z,8.77
2023-01-13T13:49:13.444Z,8.78
2023-01-13T13:51:46.505Z,8.71
2023-01-13T13:54:18.134Z,8.74
2023-01-13T13:56:48.824Z,8.76
2023-01-13T13:59:21.187Z,8.87
2023-01-13T14:02:00.823Z,8.77
2023-01-13T14:04:31.991Z,8.82
2023-01-13T14:07:01.943Z,8.92
2023-01-13T14:09:40.122Z,8.98
2023-01-13T14:12:17.916Z,8.89
2023-01-13T14:14:47.387Z,8.85
2023-01-13T14:17:25.174Z,8.92
2023-01-13T14:20:05.005Z,9.00
2023-01-13T14:22:33.624Z,8.91
2023-01-13T14:25:02.128Z,8.91
2023-01-13T14:27:31.902Z,8.83
2023-01-13T14:30:01.567Z,8.84
2023-01-13T14:32:38.644Z,8.76
2023-01-13T14:35:09.211Z,8.73
2023-01-13T14:37:39.773Z,8.77
2023-01-13T14:40:28.655Z,8.74
2023-01-13T14:43:00.266Z,8.69
2023-01-13T14:45:29.474Z,8.37
2023-01-13T14:47:59.959Z,8.29
2023-01-13T14:50:34.003Z,8.28
2023-01-13T14:53:05.025Z,8.25
2023-01-13T14:55:36.497Z,8.02
2023-01-13T14:58:28.312Z,7.94
2023-01-13T15:01:28.932Z,7.96
2023-01-13T15:04:16.220Z,8.01
2023-01-13T15:06:50.787Z,7.90
2023-01-13T15:09:26.252Z,7.77
2023-01-13T15:11:56.357Z,7.78
2023-01-13T15:14:30.509Z,7.78
2023-01-13T15:16:58.736Z,7.77
2023-01-13T15:19:26.818Z,7.86
2023-01-13T15:21:56.350Z,7.89
2023-01-13T15:24:24.450Z,7.91
2023-01-13T15:26:52.681Z,7.89
2023-01-13T15:29:22.021Z,7.74
2023-01-13T15:31:50.987Z,7.70
2023-01-13T15:34:19.096Z,7.72
2023-01-13T15:36:47.327Z,7.80
2023-01-13T15:39:17.197Z,7.69
2023-01-13T15:42:02.963Z,7.68
2023-01-13T15:44:48.427Z,7.70
2023-01-13T15:47:16.844Z,7.64
2023-01-13T15:49:46.510Z,7.62
2023-01-13T15:52:21.515Z,7.59
2023-01-13T16:08:56.630Z,7.76
2023-01-13T16:11:24.739Z,7.75
2023-01-13T16:13:52.806Z,7.77
2023-01-13T16:16:23.245Z,7.77
2023-01-13T16:18:52.101Z,7.78
2023-01-13T16:21:20.679Z,7.76
2023-01-13T16:23:49.719Z,7.63
2023-01-13T16:26:24.487Z,7.66
2023-01-13T16:28:54.135Z,7.55
2023-01-13T16:31:27.329Z,7.54
2023-01-13T16:33:55.760Z,7.73
2023-01-13T16:36:24.161Z,7.70
2023-01-13T16:38:53.902Z,7.68
2023-01-13T16:41:25.169Z,7.66
2023-01-13T16:43:53.962Z,7.66
2023-01-13T16:46:24.977Z,7.63
2023-01-13T16:48:54.529Z,7.54
2023-01-13T16:51:23.675Z,7.42
2023-01-13T16:53:52.184Z,7.38
2023-01-13T16:56:27.406Z,7.34
2023-01-13T16:58:57.096Z,7.45
2023-01-13T17:01:28.266Z,7.46
2023-01-13T17:03:58.021Z,7.45
2023-01-13T17:06:33.651Z,7.46
2023-01-13T17:09:02.815Z,7.55
2023-01-13T17:11:32.570Z,7.53
2023-01-13T17:14:00.866Z,7.52
2023-01-13T17:16:44.021Z,7.53
2023-01-13T17:19:13.199Z,7.52
2023-01-13T17:21:41.414Z,7.48
2023-01-13T17:24:10.789Z,7.47
2023-01-13T17:26:44.124Z,7.44
2023-01-13T17:29:15.523Z,7.49
2023-01-13T17:31:43.851Z,7.56
2023-01-13T17:34:13.384Z,7.85
2023-01-13T17:36:43.473Z,7.74
2023-01-13T17:39:17.488Z,7.62
2023-01-13T17:41:47.676Z,7.53
2023-01-13T17:44:16.317Z,7.46
2023-01-13T17:46:44.877Z,7.40
2023-01-13T17:49:13.562Z,7.36
2023-01-13T17:51:41.666Z,7.33
2023-01-13T17:54:12.307Z,7.34
2023-01-13T17:56:41.244Z,7.31
2023-01-13T17:59:12.665Z,7.32
2023-01-13T18:01:41.262Z,7.30
2023-01-13T18:04:15.014Z,7.27
2023-01-13T18:06:43.499Z,7.25
2023-01-13T18:09:12.022Z,7.26
2023-01-13T18:11:40.311Z,7.22
2023-01-13T18:14:09.580Z,7.17
2023-01-13T18:16:39.899Z,7.10
2023-01-13T18:19:25.376Z,7.13
2023-01-13T18:22:11.282Z,7.05
2023-01-13T18:24:56.750Z,6.97
2023-01-13T18:27:31.221Z,6.85
2023-01-13T18:30:01.452Z,6.84
2023-01-13T18:32:33.668Z,6.75
2023-01-13T18:35:06.755Z,6.67
2023-01-13T18:37:38.710Z,6.76
2023-01-13T18:40:09.429Z,6.72
2023-01-13T18:42:52.009Z,6.64
2023-01-13T18:45:20.804Z,6.60
2023-01-13T18:47:52.986Z,6.53
2023-01-13T18:50:21.843Z,6.55
2023-01-13T18:52:50.066Z,6.54
2023-01-13T18:55:18.766Z,6.51
2023-01-13T18:57:47.193Z,6.46
2023-01-13T19:00:17.971Z,6.47
2023-01-13T19:02:47.339Z,6.48
2023-01-13T19:05:17.515Z,6.48
2023-01-13T19:07:51.036Z,6.48
2023-01-13T19:10:19.798Z,6.46
2023-01-13T19:12:48.029Z,6.50
2023-01-13T19:15:16.422Z,6.57
2023-01-13T19:17:45.178Z,6.60
2023-01-13T19:20:14.111Z,6.50
2023-01-13T19:22:51.421Z,6.47
2023-01-13T19:25:19.686Z,6.43
2023-01-13T19:27:47.898Z,6.49
2023-01-13T19:30:17.497Z,6.43
2023-01-13T19:32:45.876Z,6.44
2023-01-13T19:35:17.709Z,6.43
2023-01-13T19:37:47.520Z,6.47
2023-01-13T19:40:16.035Z,6.58
2023-01-13T19:43:02.797Z,6.61
2023-01-13T19:45:34.188Z,6.53
2023-01-13T19:48:05.335Z,6.58
2023-01-13T19:50:37.829Z,6.56
2023-01-13T19:53:08.219Z,6.60
2023-01-13T19:55:36.733Z,6.55
2023-01-13T19:58:05.500Z,6.49
2023-01-13T20:00:35.013Z,6.46
2023-01-13T20:03:08.073Z,6.66
2023-01-13T20:05:36.374Z,6.87
2023-01-13T20:08:04.858Z,6.81
2023-01-13T20:10:34.457Z,6.93
2023-01-13T20:13:08.296Z,6.85
2023-01-13T20:15:36.718Z,6.74
2023-01-13T20:18:05.208Z,6.63
2023-01-13T20:20:33.453Z,6.55
2023-01-13T20:23:01.606Z,6.45
2023-01-13T20:25:30.925Z,6.39
2023-01-13T20:28:02.289Z,6.60
2023-01-13T20:30:30.533Z,6.58
2023-01-13T20:32:58.911Z,6.60
2023-01-13T20:35:29.688Z,6.56
2023-01-13T20:37:58.462Z,6.60
2023-01-13T20:40:26.581Z,6.56
2023-01-13T20:42:53.902Z,6.52
2023-01-13T20:45:23.511Z,6.40
2023-01-13T20:47:51.833Z,6.46
2023-01-13T20:50:20.220Z,6.40
2023-01-13T20:52:49.408Z,6.37
2023-01-13T20:55:19.315Z,6.37
2023-01-13T20:57:50.355Z,6.51
2023-01-13T21:00:20.158Z,6.41
2023-01-13T21:02:49.828Z,6.41
2023-01-13T21:05:18.414Z,6.51
2023-01-13T21:07:47.040Z,6.51
2023-01-13T21:10:15.435Z,6.42
2023-01-13T21:13:03.041Z,6.35
2023-01-13T21:15:31.411Z,6.29
2023-01-13T21:18:18.169Z,6.19
2023-01-13T21:20:46.422Z,6.15
2023-01-13T21:23:14.732Z,6.23
2023-01-13T21:25:43.423Z,6.20
2023-01-13T21:28:11.928Z,6.17
2023-01-13T21:30:40.751Z,6.14
2023-01-13T21:33:14.243Z,6.31
2023-01-13T21:35:42.813Z,6.37
2023-01-13T21:38:12.437Z,6.30
2023-01-13T21:40:40.798Z,6.28
2023-01-13T21:43:30.249Z,6.16
2023-01-13T21:46:30.641Z,6.16
2023-01-13T21:49:00.356Z,6.11
2023-01-13T21:51:28.984Z,6.06
2023-01-13T21:53:57.769Z,6.02
2023-01-13T21:56:26.478Z,6.00
2023-01-13T21:59:00.255Z,6.08
2023-01-13T22:01:28.658Z,5.95
2023-01-13T22:04:15.434Z,5.96
2023-01-13T22:06:44.978Z,5.99
2023-01-13T22:09:13.395Z,6.00
2023-01-13T22:11:41.545Z,6.04
2023-01-13T22:14:11.139Z,5.93
2023-01-13T22:16:42.528Z,5.84
2023-01-13T22:19:12.328Z,5.82
2023-01-13T22:21:40.720Z,5.80
2023-01-13T22:24:11.609Z,5.74
2023-01-13T22:26:39.792Z,5.73
2023-01-13T22:29:08.029Z,5.63
2023-01-13T22:31:36.356Z,5.63
2023-01-13T22:34:04.715Z,5.70
2023-01-13T22:36:32.880Z,5.80
2023-01-13T22:39:04.814Z,5.67
2023-01-13T22:41:34.559Z,5.64
2023-01-13T22:44:02.741Z,5.74
2023-01-13T22:46:30.926Z,5.76
2023-01-13T22:48:59.184Z,5.72
2023-01-13T22:51:27.694Z,5.75
2023-01-13T22:53:56.040Z,5.71
2023-01-13T22:56:25.667Z,5.72
2023-01-13T22:59:01.722Z,5.64
2023-01-13T23:01:32.393Z,5.59
2023-01-13T23:04:01.163Z,5.61
2023-01-13T23:06:31.645Z,5.59
2023-01-13T23:08:59.984Z,5.65
2023-01-13T23:11:30.875Z,5.65
2023-01-13T23:14:01.626Z,5.68
2023-01-13T23:16:31.719Z,5.71
2023-01-13T23:18:59.990Z,5.71
2023-01-13T23:21:30.613Z,5.81
2023-01-13T23:23:59.297Z,5.82
2023-01-13T23:26:28.510Z,5.92
2023-01-13T23:29:01.535Z,5.90
2023-01-13T23:31:30.063Z,5.78
2023-01-13T23:33:58.802Z,5.79
2023-01-13T23:36:29.066Z,5.65
2023-01-13T23:38:59.213Z,5.66
2023-01-13T23:41:32.077Z,5.64
2023-01-13T23:44:02.092Z,5.73
2023-01-13T23:46:31.438Z,5.61
2023-01-13T23:49:00.098Z,5.52
2023-01-13T23:51:30.074Z,5.59
2023-01-13T23:53:58.878Z,5.69
2023-01-13T23:56:29.834Z,5.81
2023-01-13T23:58:58.684Z,5.75
